createdAt,value
2019-01-19T00:02:12.222Z,21.80
2019-01-19T00:04:49.623Z,20.57
2019-01-19T00:07:36.520Z,21.45
2019-01-19T00:10:10.997Z,21.40
2019-01-19T00:12:45.355Z,21.50
2019-01-19T00:15:16.752Z,21.95
2019-01-19T00:17:54.201Z,20.83
2019-01-19T00:20:34.705Z,21.82
2019-01-19T00:23:31.709Z,21.80
2019-01-19T00:26:15.308Z,22.00
2019-01-19T00:28:49.937Z,21.23
2019-01-19T00:31:21.628Z,21.60
2019-01-19T00:34:25.346Z,20.72
2019-01-19T00:36:59.860Z,20.60
2019-01-19T00:39:43.249Z,20.70
2019-01-19T00:42:14.952Z,21.90
2019-01-19T00:44:54.661Z,20.43
2019-01-19T00:47:41.211Z,22.63
2019-01-19T00:50:21.329Z,20.93
2019-01-19T00:53:01.581Z,22.15
2019-01-19T00:55:45.252Z,21.70
2019-01-19T00:58:17.011Z,20.45
2019-01-19T01:00:58.259Z,21.50
2019-01-19T01:03:38.131Z,21.42
2019-01-19T01:06:09.897Z,20.43
2019-01-19T01:08:46.999Z,20.68
2019-01-19T01:11:19.346Z,21.37
2019-01-19T01:14:17.997Z,20.32
2019-01-19T01:16:49.459Z,21.10
2019-01-19T01:19:38.582Z,20.60
2019-01-19T01:22:22.212Z,20.77
2019-01-19T01:25:12.415Z,21.17
2019-01-19T01:27:49.897Z,21.30
2019-01-19T01:30:24.342Z,21.00
2019-01-19T01:32:55.789Z,19.80
2019-01-19T01:35:41.759Z,20.17
2019-01-19T01:38:25.035Z,20.20
2019-01-19T01:41:16.288Z,20.23
2019-01-19T01:44:14.967Z,21.55
2019-01-19T01:47:09.361Z,20.33
2019-01-19T01:49:46.872Z,21.17
2019-01-19T01:52:41.241Z,20.48
2019-01-19T01:55:13.003Z,20.68
2019-01-19T01:57:44.756Z,21.07
2019-01-19T02:00:21.708Z,21.45
2019-01-19T02:03:02.197Z,21.07
2019-01-19T02:05:45.325Z,21.40
2019-01-19T02:08:40.896Z,21.07
2019-01-19T02:11:21.225Z,19.35
2019-01-19T02:13:52.956Z,21.02
2019-01-19T02:16:40.679Z,21.17
2019-01-19T02:19:27.511Z,21.42
2019-01-19T02:22:14.516Z,19.70
2019-01-19T02:24:58.362Z,20.32
2019-01-19T02:27:38.559Z,19.30
2019-01-19T02:30:13.350Z,19.57
2019-01-19T02:32:50.783Z,19.75
2019-01-19T02:35:48.142Z,18.30
2019-01-19T02:38:16.750Z,19.65
2019-01-19T02:41:14.055Z,20.23
2019-01-19T02:43:45.521Z,19.75
2019-01-19T02:46:36.596Z,19.45
2019-01-19T02:49:16.942Z,18.98
2019-01-19T02:51:51.376Z,17.87
2019-01-19T02:54:31.597Z,18.20
2019-01-19T02:57:08.504Z,18.15
2019-01-19T02:59:48.985Z,19.50
2019-01-19T03:02:29.027Z,18.85
2019-01-19T03:05:00.495Z,18.02
2019-01-19T03:07:38.386Z,17.90
2019-01-19T03:10:18.949Z,18.55
2019-01-19T03:13:02.390Z,17.42
2019-01-19T03:15:42.847Z,18.48
2019-01-19T03:18:26.260Z,17.42
2019-01-19T03:21:00.691Z,18.60
2019-01-19T03:23:34.808Z,17.35
2019-01-19T03:26:06.480Z,16.80
2019-01-19T03:28:50.404Z,17.48
2019-01-19T03:31:24.786Z,16.37
2019-01-19T03:34:01.841Z,16.05
2019-01-19T03:36:44.746Z,18.05
2019-01-19T03:39:29.058Z,16.57
2019-01-19T03:42:15.315Z,16.30
2019-01-19T03:44:52.257Z,16.73
2019-01-19T03:47:35.607Z,14.90
2019-01-19T03:50:13.487Z,16.55
2019-01-19T03:52:50.905Z,16.12
2019-01-19T03:55:34.620Z,16.45
2019-01-19T03:58:18.459Z,15.90
2019-01-19T04:00:50.216Z,15.60
2019-01-19T04:03:46.689Z,16.85
2019-01-19T04:06:27.072Z,14.75
2019-01-19T04:09:16.740Z,15.00
2019-01-19T04:12:06.608Z,15.37
2019-01-19T04:15:02.600Z,14.93
2019-01-19T04:17:46.371Z,16.60
2019-01-19T04:20:20.323Z,15.90
2019-01-19T04:22:48.728Z,14.67
2019-01-19T04:25:22.037Z,15.47
2019-01-19T04:27:51.017Z,15.50
2019-01-19T04:30:19.513Z,15.78
2019-01-19T04:32:48.322Z,16.20
2019-01-19T04:35:16.728Z,15.88
2019-01-19T04:37:45.160Z,15.45
2019-01-19T04:40:14.150Z,15.45
2019-01-19T04:42:43.636Z,14.47
2019-01-19T04:45:12.335Z,16.20
2019-01-19T04:47:40.720Z,15.72
2019-01-19T04:50:11.357Z,15.50
2019-01-19T04:52:39.751Z,15.95
2019-01-19T04:55:08.586Z,15.98
2019-01-19T04:57:36.979Z,15.88
2019-01-19T05:00:17.923Z,14.68
2019-01-19T05:02:46.439Z,14.75
2019-01-19T05:05:14.835Z,14.45
2019-01-19T05:07:43.515Z,14.95
2019-01-19T05:10:13.338Z,14.63
2019-01-19T05:12:41.718Z,14.30
2019-01-19T05:15:16.617Z,15.55
2019-01-19T05:17:45.745Z,15.30
2019-01-19T05:20:15.444Z,14.65
2019-01-19T05:22:43.910Z,15.65
2019-01-19T05:25:12.937Z,14.10
2019-01-19T05:27:41.352Z,15.00
2019-01-19T05:30:15.883Z,14.10
2019-01-19T05:32:44.281Z,15.85
2019-01-19T05:35:13.125Z,15.00
2019-01-19T05:37:41.530Z,14.80
2019-01-19T05:40:12.259Z,15.05
2019-01-19T05:42:40.647Z,14.18
2019-01-19T05:45:11.775Z,14.35
2019-01-19T05:47:40.176Z,14.60
2019-01-19T05:50:12.141Z,15.00
2019-01-19T05:52:40.549Z,14.35
2019-01-19T05:55:09.047Z,14.60
2019-01-19T05:57:37.462Z,14.90
2019-01-19T06:00:11.753Z,14.87
2019-01-19T06:02:40.169Z,14.20
2019-01-19T06:05:09.100Z,14.15
2019-01-19T06:07:37.501Z,15.00
2019-01-19T06:10:11.840Z,13.83
2019-01-19T06:12:40.242Z,13.10
2019-01-19T06:15:12.035Z,13.80
2019-01-19T06:17:40.750Z,13.80
2019-01-19T06:20:12.254Z,13.75
2019-01-19T06:22:40.781Z,13.55
2019-01-19T06:25:12.265Z,13.13
2019-01-19T06:27:40.734Z,12.80
2019-01-19T06:30:12.593Z,14.15
2019-01-19T06:32:41.018Z,13.00
2019-01-19T06:35:10.339Z,12.80
2019-01-19T06:37:38.747Z,12.78
2019-01-19T06:40:13.066Z,12.82
2019-01-19T06:42:41.729Z,13.10
2019-01-19T06:45:13.495Z,12.45
2019-01-19T06:47:41.969Z,12.80
2019-01-19T06:50:13.618Z,12.63
2019-01-19T06:52:42.101Z,13.30
2019-01-19T06:55:13.037Z,12.85
2019-01-19T06:57:41.429Z,11.68
2019-01-19T07:00:15.427Z,12.53
2019-01-19T07:02:43.894Z,12.82
2019-01-19T07:05:13.703Z,12.58
2019-01-19T07:07:42.619Z,11.38
2019-01-19T07:10:16.655Z,12.30
2019-01-19T07:12:45.343Z,11.85
2019-01-19T07:15:14.573Z,13.98
2019-01-19T07:17:42.960Z,11.97
2019-01-19T07:20:17.718Z,13.40
2019-01-19T07:22:46.114Z,12.28
2019-01-19T07:25:14.575Z,12.43
2019-01-19T07:27:42.981Z,11.78
2019-01-19T07:30:14.556Z,12.18
2019-01-19T07:32:43.224Z,10.88
2019-01-19T07:35:11.910Z,12.65
2019-01-19T07:37:40.313Z,11.70
2019-01-19T07:40:14.147Z,11.60
2019-01-19T07:42:43.699Z,11.70
2019-01-19T07:45:14.049Z,10.90
2019-01-19T07:47:43.604Z,12.28
2019-01-19T07:50:14.747Z,12.70
2019-01-19T07:52:43.149Z,11.75
2019-01-19T07:55:17.042Z,11.30
2019-01-19T07:57:46.363Z,12.25
2019-01-19T08:00:18.218Z,12.20
2019-01-19T08:02:46.761Z,11.73
2019-01-19T08:05:15.152Z,11.53
2019-01-19T08:07:43.560Z,11.33
2019-01-19T08:10:15.195Z,10.60
2019-01-19T08:12:43.782Z,13.88
2019-01-19T08:15:15.246Z,10.90
2019-01-19T08:17:43.912Z,11.15
2019-01-19T08:20:14.443Z,11.20
2019-01-19T08:22:42.832Z,10.82
2019-01-19T08:25:13.207Z,10.72
2019-01-19T08:27:41.668Z,11.30
2019-01-19T08:30:19.020Z,11.40
2019-01-19T08:32:47.869Z,12.18
2019-01-19T08:35:17.555Z,11.90
2019-01-19T08:37:46.994Z,10.83
2019-01-19T08:40:24.171Z,11.75
2019-01-19T08:42:57.462Z,11.97
2019-01-19T08:45:26.232Z,11.18
2019-01-19T08:47:54.882Z,12.55
2019-01-19T08:50:23.491Z,11.10
2019-01-19T08:52:51.963Z,10.80
2019-01-19T08:55:20.425Z,12.10
2019-01-19T08:57:48.844Z,10.93
2019-01-19T09:00:19.163Z,10.97
2019-01-19T09:02:47.562Z,10.93
2019-01-19T09:05:16.078Z,10.80
2019-01-19T09:07:44.684Z,10.70
2019-01-19T09:10:18.412Z,10.70
2019-01-19T09:12:46.872Z,11.10
2019-01-19T09:15:23.166Z,11.10
2019-01-19T09:17:52.880Z,11.30
2019-01-19T09:20:21.446Z,11.43
2019-01-19T09:22:51.769Z,10.90
2019-01-19T09:25:20.239Z,10.70
2019-01-19T09:27:48.718Z,10.80
2019-01-19T09:30:24.448Z,11.43
2019-01-19T09:32:52.902Z,10.43
2019-01-19T09:35:21.823Z,10.63
2019-01-19T09:37:50.263Z,11.10
2019-01-19T09:40:19.438Z,10.73
2019-01-19T09:42:48.186Z,11.30
2019-01-19T09:45:18.273Z,10.27
2019-01-19T09:47:46.846Z,10.90
2019-01-19T09:50:16.799Z,10.00
2019-01-19T09:52:45.707Z,10.37
2019-01-19T09:55:14.443Z,10.00
2019-01-19T09:57:43.028Z,10.70
2019-01-19T10:00:17.157Z,10.07
2019-01-19T10:02:45.879Z,10.40
2019-01-19T10:05:17.175Z,11.07
2019-01-19T10:07:48.589Z,11.40
2019-01-19T10:10:16.493Z,10.60
2019-01-19T10:12:44.881Z,10.73
2019-01-19T10:15:17.852Z,10.30
2019-01-19T10:17:46.258Z,10.83
2019-01-19T10:20:17.655Z,10.87
2019-01-19T10:22:46.160Z,9.90
2019-01-19T10:25:16.374Z,10.20
2019-01-19T10:27:44.828Z,10.97
2019-01-19T10:30:16.334Z,10.10
2019-01-19T10:32:44.736Z,10.10
2019-01-19T10:35:14.655Z,9.73
2019-01-19T10:37:43.047Z,10.67
2019-01-19T10:40:14.222Z,10.40
2019-01-19T10:42:42.880Z,11.53
2019-01-19T10:45:22.860Z,9.90
2019-01-19T10:47:51.248Z,11.20
2019-01-19T10:50:20.177Z,11.40
2019-01-19T10:52:48.942Z,11.43
2019-01-19T10:55:19.552Z,10.90
2019-01-19T10:57:48.077Z,11.00
2019-01-19T11:00:22.285Z,10.30
2019-01-19T11:02:50.935Z,10.40
2019-01-19T11:05:19.321Z,9.77
2019-01-19T11:07:49.385Z,9.80
2019-01-19T11:10:20.310Z,10.13
2019-01-19T11:12:49.034Z,10.93
2019-01-19T11:15:18.973Z,11.57
2019-01-19T11:17:47.597Z,9.97
2019-01-19T11:20:21.526Z,10.30
2019-01-19T11:22:49.910Z,10.20
2019-01-19T11:25:18.299Z,11.10
2019-01-19T11:27:46.696Z,10.00
2019-01-19T11:30:20.556Z,9.90
2019-01-19T11:32:49.365Z,10.67
2019-01-19T11:35:18.793Z,10.53
2019-01-19T11:37:47.173Z,10.30
2019-01-19T11:40:25.873Z,9.47
2019-01-19T11:42:54.369Z,9.90
2019-01-19T11:45:25.477Z,11.03
2019-01-19T11:47:53.968Z,9.60
2019-01-19T11:50:22.840Z,11.20
2019-01-19T11:52:51.525Z,10.17
2019-01-19T11:55:21.174Z,10.67
2019-01-19T11:57:52.094Z,11.40
2019-01-19T12:00:32.678Z,11.63
2019-01-19T12:03:01.127Z,10.43
2019-01-19T12:05:30.601Z,11.33
2019-01-19T12:07:59.001Z,10.50
2019-01-19T12:10:33.667Z,11.00
2019-01-19T12:13:02.798Z,10.13
2019-01-19T12:15:31.160Z,10.47
2019-01-19T12:17:59.737Z,10.40
2019-01-19T12:20:36.850Z,10.60
2019-01-19T12:23:08.070Z,10.03
2019-01-19T12:25:37.565Z,11.40
2019-01-19T12:28:07.352Z,11.20
2019-01-19T12:30:36.463Z,11.80
2019-01-19T12:33:05.948Z,10.03
2019-01-19T12:35:34.789Z,10.30
2019-01-19T12:38:03.611Z,10.93
2019-01-19T12:40:32.024Z,10.43
2019-01-19T12:43:03.199Z,10.47
2019-01-19T12:45:37.726Z,10.33
2019-01-19T12:48:06.254Z,9.80
2019-01-19T12:50:34.709Z,10.37
2019-01-19T12:53:03.106Z,9.50
2019-01-19T12:55:31.481Z,9.20
2019-01-19T12:57:59.872Z,9.93
2019-01-19T13:00:29.025Z,9.37
2019-01-19T13:02:57.759Z,10.27
2019-01-19T13:05:37.795Z,11.60
2019-01-19T13:08:09.241Z,9.77
2019-01-19T13:10:40.765Z,9.57
2019-01-19T13:13:10.195Z,9.57
2019-01-19T13:15:47.712Z,10.97
2019-01-19T13:18:33.768Z,11.47
2019-01-19T13:21:38.450Z,10.07
2019-01-19T13:24:29.549Z,10.27
2019-01-19T13:27:06.965Z,10.50
2019-01-19T13:30:09.010Z,9.67
2019-01-19T13:32:55.081Z,9.50
2019-01-19T13:35:58.499Z,10.00
2019-01-19T13:38:32.473Z,10.20
2019-01-19T13:41:09.845Z,9.30
2019-01-19T13:43:50.899Z,9.70
2019-01-19T13:46:25.222Z,9.40
2019-01-19T13:49:02.407Z,9.33
2019-01-19T13:51:33.927Z,10.20
2019-01-19T13:54:20.563Z,10.53
2019-01-19T13:56:55.288Z,9.33
2019-01-19T13:59:35.572Z,9.20
2019-01-19T14:02:23.071Z,9.80
2019-01-19T14:05:18.723Z,10.60
2019-01-19T14:08:06.470Z,9.33
2019-01-19T14:10:58.102Z,11.03
2019-01-19T14:13:46.058Z,8.37
2019-01-19T14:16:29.183Z,9.10
2019-01-19T14:19:35.354Z,10.70
2019-01-19T14:22:36.826Z,9.13
2019-01-19T14:25:26.515Z,9.20
2019-01-19T14:28:14.649Z,9.50
2019-01-19T14:30:51.977Z,8.90
2019-01-19T14:33:42.284Z,8.70
2019-01-19T14:36:18.924Z,8.43
2019-01-19T14:38:56.830Z,8.43
2019-01-19T14:41:53.780Z,8.67
2019-01-19T14:44:33.748Z,8.80
2019-01-19T14:47:17.555Z,9.00
2019-01-19T14:50:03.948Z,9.10
2019-01-19T14:52:41.410Z,10.43
2019-01-19T14:55:21.657Z,9.20
2019-01-19T14:57:55.576Z,8.40
2019-01-19T15:00:30.037Z,8.40
2019-01-19T15:03:17.584Z,9.00
2019-01-19T15:05:55.109Z,8.20
2019-01-19T15:08:29.150Z,8.90
2019-01-19T15:11:09.167Z,9.00
2019-01-19T15:14:01.794Z,9.57
2019-01-19T15:17:06.316Z,9.73
2019-01-19T15:19:46.715Z,9.47
2019-01-19T15:22:42.715Z,10.00
2019-01-19T15:25:35.707Z,9.30
2019-01-19T15:28:23.804Z,9.77
2019-01-19T15:30:55.258Z,10.07
2019-01-19T15:33:49.267Z,9.70
2019-01-19T15:36:20.719Z,10.80
2019-01-19T15:39:11.575Z,10.70
2019-01-19T15:42:01.171Z,9.83
2019-01-19T15:44:38.384Z,9.30
2019-01-19T15:47:26.394Z,11.13
2019-01-19T15:50:07.249Z,11.27
2019-01-19T15:52:41.865Z,9.63
2019-01-19T15:55:16.009Z,9.90
2019-01-19T15:57:47.688Z,11.90
2019-01-19T16:00:36.793Z,13.20
2019-01-19T16:03:20.135Z,13.03
2019-01-19T16:05:57.451Z,13.00
2019-01-19T16:08:43.687Z,13.93
2019-01-19T16:11:17.861Z,13.30
2019-01-19T16:14:11.976Z,11.50
2019-01-19T16:16:49.071Z,10.73
2019-01-19T16:19:26.254Z,11.60
2019-01-19T16:22:03.553Z,10.97
2019-01-19T16:24:54.609Z,11.63
2019-01-19T16:27:26.047Z,10.60
2019-01-19T16:29:57.548Z,11.30
2019-01-19T16:32:46.960Z,10.30
2019-01-19T16:35:37.036Z,10.47
2019-01-19T16:38:28.347Z,9.97
2019-01-19T16:41:19.902Z,10.07
2019-01-19T16:43:55.254Z,11.53
2019-01-19T16:46:34.586Z,11.37
2019-01-19T16:49:06.142Z,12.43
2019-01-19T16:52:11.201Z,14.47
2019-01-19T16:54:49.177Z,13.20
2019-01-19T16:57:51.454Z,13.87
2019-01-19T17:00:51.813Z,11.40
2019-01-19T17:03:31.957Z,11.20
2019-01-19T17:06:29.937Z,12.00
2019-01-19T17:09:33.154Z,10.37
2019-01-19T17:12:03.163Z,10.73
2019-01-19T17:14:34.617Z,10.00
2019-01-19T17:17:22.429Z,10.23
2019-01-19T17:19:56.682Z,11.03
2019-01-19T17:22:36.761Z,16.10
2019-01-19T17:25:25.971Z,15.30
2019-01-19T17:28:18.357Z,14.47
2019-01-19T17:31:18.434Z,14.17
2019-01-19T17:34:01.951Z,11.93
2019-01-19T17:36:42.001Z,11.40
2019-01-19T17:39:30.013Z,9.80
2019-01-19T17:42:05.295Z,10.60
2019-01-19T17:45:04.045Z,11.12
2019-01-19T17:47:38.774Z,10.27
2019-01-19T17:50:16.107Z,10.08
2019-01-19T17:52:47.545Z,10.40
2019-01-19T17:55:38.234Z,10.00
2019-01-19T17:58:32.131Z,9.33
2019-01-19T18:01:21.551Z,8.60
2019-01-19T18:03:56.211Z,10.50
2019-01-19T18:06:42.537Z,10.07
2019-01-19T18:09:15.219Z,11.20
2019-01-19T18:11:52.491Z,10.50
2019-01-19T18:14:35.789Z,10.00
2019-01-19T18:17:25.573Z,9.35
2019-01-19T18:20:11.811Z,10.08
2019-01-19T18:22:45.941Z,9.93
2019-01-19T18:25:26.578Z,9.40
2019-01-19T18:28:04.347Z,10.43
2019-01-19T18:30:53.623Z,9.33
2019-01-19T18:33:27.983Z,9.77
2019-01-19T18:36:14.231Z,10.68
2019-01-19T18:39:04.673Z,10.13
2019-01-19T18:41:44.940Z,10.30
2019-01-19T18:44:43.017Z,10.40
2019-01-19T18:47:40.588Z,10.93
2019-01-19T18:50:24.039Z,10.05
2019-01-19T18:53:10.536Z,10.10
2019-01-19T18:55:44.667Z,9.80
2019-01-19T18:58:46.144Z,9.95
2019-01-19T19:01:37.444Z,10.80
2019-01-19T19:04:14.834Z,10.43
2019-01-19T19:07:02.560Z,11.12
2019-01-19T19:10:01.929Z,10.70
2019-01-19T19:12:37.034Z,10.15
2019-01-19T19:15:27.001Z,10.40
2019-01-19T19:18:10.181Z,10.83
2019-01-19T19:20:59.830Z,11.10
2019-01-19T19:23:55.326Z,11.63
2019-01-19T19:26:35.920Z,10.90
2019-01-19T19:29:16.100Z,11.30
2019-01-19T19:31:53.795Z,11.43
2019-01-19T19:34:45.100Z,11.12
2019-01-19T19:37:16.560Z,11.05
2019-01-19T19:39:48.095Z,11.38
2019-01-19T19:42:34.298Z,10.88
2019-01-19T19:45:08.816Z,10.70
2019-01-19T19:47:46.036Z,11.13
2019-01-19T19:50:23.443Z,10.20
2019-01-19T19:52:51.912Z,10.23
2019-01-19T19:55:19.280Z,9.93
2019-01-19T19:57:47.978Z,10.75
2019-01-19T20:00:16.819Z,11.40
2019-01-19T20:02:45.211Z,11.70
2019-01-19T20:05:15.367Z,11.60
2019-01-19T20:07:43.875Z,11.18
2019-01-19T20:10:16.984Z,11.25
2019-01-19T20:12:43.389Z,11.00
2019-01-19T20:15:12.724Z,10.58
2019-01-19T20:17:41.536Z,10.55
2019-01-19T20:20:11.557Z,11.60
2019-01-19T20:22:40.365Z,11.18
2019-01-19T20:25:09.694Z,10.40
2019-01-19T20:27:39.873Z,10.90
2019-01-19T20:30:14.383Z,10.10
2019-01-19T20:32:42.839Z,10.90
2019-01-19T20:35:11.355Z,10.93
2019-01-19T20:37:39.772Z,11.80
2019-01-19T20:40:10.233Z,11.75
2019-01-19T20:42:38.801Z,10.68
2019-01-19T20:45:10.272Z,10.58
2019-01-19T20:47:39.850Z,11.10
2019-01-19T20:50:11.291Z,10.68
2019-01-19T20:52:40.085Z,10.35
2019-01-19T20:55:11.340Z,11.73
2019-01-19T20:57:39.868Z,10.45
2019-01-19T21:00:15.332Z,10.72
2019-01-19T21:02:43.748Z,10.45
2019-01-19T21:05:12.228Z,12.25
2019-01-19T21:07:40.867Z,10.48
2019-01-19T21:10:09.700Z,10.53
2019-01-19T21:12:38.111Z,10.48
2019-01-19T21:15:09.565Z,10.03
2019-01-19T21:17:38.006Z,9.90
2019-01-19T21:20:09.256Z,11.05
2019-01-19T21:22:37.662Z,10.45
2019-01-19T21:25:07.914Z,10.15
2019-01-19T21:27:36.410Z,10.03
2019-01-19T21:30:10.314Z,10.35
2019-01-19T21:32:38.737Z,10.43
2019-01-19T21:35:08.430Z,9.98
2019-01-19T21:37:36.867Z,9.98
2019-01-19T21:40:08.329Z,10.45
2019-01-19T21:42:36.719Z,10.23
2019-01-19T21:45:11.168Z,10.15
2019-01-19T21:47:39.582Z,11.08
2019-01-19T21:50:10.903Z,10.55
2019-01-19T21:52:39.387Z,11.45
2019-01-19T21:55:09.543Z,10.35
2019-01-19T21:57:37.934Z,10.48
2019-01-19T22:00:15.224Z,9.48
2019-01-19T22:02:43.611Z,10.65
2019-01-19T22:05:12.453Z,10.03
2019-01-19T22:07:41.199Z,9.95
2019-01-19T22:10:15.830Z,10.40
2019-01-19T22:12:44.226Z,10.05
2019-01-19T22:15:17.296Z,11.45
2019-01-19T22:17:45.982Z,10.18
2019-01-19T22:20:16.982Z,11.00
2019-01-19T22:22:45.529Z,11.33
2019-01-19T22:25:14.832Z,10.20
2019-01-19T22:27:44.903Z,11.10
2019-01-19T22:30:16.364Z,10.48
2019-01-19T22:32:44.771Z,10.63
2019-01-19T22:35:13.744Z,11.43
2019-01-19T22:37:42.149Z,12.07
2019-01-19T22:40:14.305Z,10.90
2019-01-19T22:42:43.347Z,9.45
2019-01-19T22:45:13.914Z,11.20
2019-01-19T22:47:42.704Z,11.22
2019-01-19T22:50:14.086Z,11.53
2019-01-19T22:52:42.539Z,12.00
2019-01-19T22:55:16.605Z,11.65
2019-01-19T22:57:45.048Z,11.83
2019-01-19T23:00:29.810Z,10.58
2019-01-19T23:02:58.210Z,11.83
2019-01-19T23:05:26.606Z,11.60
2019-01-19T23:07:55.342Z,10.75
2019-01-19T23:10:24.035Z,11.25
2019-01-19T23:12:52.708Z,10.20
2019-01-19T23:15:21.429Z,10.95
2019-01-19T23:17:49.819Z,11.12
2019-01-19T23:20:18.459Z,10.50
2019-01-19T23:22:47.105Z,11.80
2019-01-19T23:25:15.799Z,10.82
2019-01-19T23:27:44.184Z,10.70
2019-01-19T23:30:15.459Z,11.08
2019-01-19T23:32:44.261Z,11.45
2019-01-19T23:35:12.709Z,10.90
2019-01-19T23:37:41.116Z,12.03
2019-01-19T23:40:12.462Z,12.05
2019-01-19T23:42:47.194Z,12.25
2019-01-19T23:45:11.290Z,11.33
2019-01-19T23:47:39.691Z,11.18
2019-01-19T23:50:10.424Z,11.38
2019-01-19T23:52:39.146Z,11.40
2019-01-19T23:55:08.034Z,11.40
2019-01-19T23:57:36.606Z,11.08
